createdAt,value
2016-11-19T00:01:06.034Z,0
2016-11-19T00:02:14.724Z,0
2016-11-19T00:03:23.412Z,0
2016-11-19T00:04:32.114Z,0
2016-11-19T00:05:40.801Z,0
2016-11-19T00:06:49.494Z,0
2016-11-19T00:07:58.179Z,0
2016-11-19T00:09:06.873Z,0
2016-11-19T00:10:15.560Z,0
2016-11-19T00:11:24.249Z,0
2016-11-19T00:12:32.939Z,0
2016-11-19T00:13:41.628Z,0
2016-11-19T00:14:50.316Z,0
2016-11-19T00:15:59.008Z,0
2016-11-19T00:17:07.695Z,0
2016-11-19T00:18:16.393Z,0
2016-11-19T00:19:25.083Z,0
2016-11-19T00:20:33.814Z,0
2016-11-19T00:21:42.511Z,0
2016-11-19T00:22:51.199Z,0
2016-11-19T00:23:59.883Z,0
2016-11-19T00:25:08.579Z,0
2016-11-19T00:26:17.277Z,0
2016-11-19T00:27:25.964Z,0
2016-11-19T00:28:34.655Z,0
2016-11-19T00:29:43.341Z,0
2016-11-19T00:30:52.027Z,0
2016-11-19T00:32:00.718Z,0
2016-11-19T00:33:09.411Z,0
2016-11-19T00:34:18.104Z,0
2016-11-19T00:35:26.788Z,0
2016-11-19T00:36:35.474Z,0
2016-11-19T00:37:44.167Z,0
2016-11-19T00:38:52.858Z,0
2016-11-19T00:40:01.551Z,0
2016-11-19T00:41:10.236Z,0
2016-11-19T00:42:18.957Z,0
2016-11-19T00:43:27.657Z,0
2016-11-19T00:44:36.356Z,0
2016-11-19T00:45:45.047Z,0
2016-11-19T00:46:53.731Z,0
2016-11-19T00:48:02.421Z,0
2016-11-19T00:49:11.419Z,0
2016-11-19T00:50:20.107Z,0
2016-11-19T00:51:28.808Z,0
2016-11-19T00:52:37.539Z,0
2016-11-19T00:53:46.226Z,0
2016-11-19T00:54:54.919Z,0
2016-11-19T00:56:03.603Z,0
2016-11-19T00:57:12.613Z,0
2016-11-19T00:58:21.305Z,0
2016-11-19T00:59:29.996Z,0
2016-11-19T01:00:38.686Z,0
2016-11-19T01:01:47.382Z,0
2016-11-19T01:02:56.381Z,0
2016-11-19T01:04:05.069Z,0
2016-11-19T01:05:14.083Z,0
2016-11-19T01:06:22.769Z,0
2016-11-19T01:07:31.458Z,0
2016-11-19T01:08:40.145Z,0
2016-11-19T01:09:48.835Z,0
2016-11-19T01:10:57.522Z,0
2016-11-19T01:12:06.211Z,0
2016-11-19T01:13:14.908Z,0
2016-11-19T01:14:23.599Z,0
2016-11-19T01:15:32.284Z,0
2016-11-19T01:16:40.969Z,0
2016-11-19T01:17:49.657Z,0
2016-11-19T01:18:58.343Z,0
2016-11-19T01:20:07.037Z,0
2016-11-19T01:21:15.723Z,0
2016-11-19T01:22:24.433Z,0
2016-11-19T01:23:33.121Z,0
2016-11-19T01:24:41.817Z,0
2016-11-19T01:25:50.503Z,0
2016-11-19T01:26:59.194Z,0
2016-11-19T01:28:07.884Z,0
2016-11-19T01:29:16.576Z,0
2016-11-19T01:30:25.261Z,0
2016-11-19T01:31:33.991Z,0
2016-11-19T01:32:42.993Z,0
2016-11-19T01:33:51.680Z,0
2016-11-19T01:35:00.365Z,0
2016-11-19T01:36:09.053Z,0
2016-11-19T01:37:17.737Z,0
2016-11-19T01:38:26.427Z,0
2016-11-19T01:39:35.118Z,0
2016-11-19T01:40:43.810Z,0
2016-11-19T01:41:52.531Z,0
2016-11-19T01:43:01.219Z,0
2016-11-19T01:44:09.907Z,0
2016-11-19T01:45:18.591Z,0
2016-11-19T01:46:27.277Z,0
2016-11-19T01:47:36.008Z,0
2016-11-19T01:48:44.821Z,0
2016-11-19T01:49:53.505Z,0
2016-11-19T01:51:02.200Z,0
2016-11-19T01:52:10.897Z,0
2016-11-19T01:53:19.586Z,0
2016-11-19T01:54:28.275Z,0
2016-11-19T01:55:36.965Z,0
2016-11-19T01:56:45.655Z,0
2016-11-19T01:57:54.353Z,0
2016-11-19T01:59:03.044Z,0
2016-11-19T02:00:11.788Z,0
2016-11-19T02:01:20.478Z,0
2016-11-19T02:02:29.166Z,0
2016-11-19T02:03:37.856Z,0
2016-11-19T02:04:46.856Z,0
2016-11-19T02:05:55.545Z,0
2016-11-19T02:07:04.229Z,0
2016-11-19T02:08:12.950Z,0
2016-11-19T02:09:21.635Z,0
2016-11-19T02:10:30.322Z,0
2016-11-19T02:11:39.011Z,0
2016-11-19T02:12:47.709Z,0
2016-11-19T02:13:56.399Z,0
2016-11-19T02:15:05.122Z,0
2016-11-19T02:16:13.811Z,0
2016-11-19T02:17:22.500Z,0
2016-11-19T02:18:31.188Z,0
2016-11-19T02:19:39.882Z,0
2016-11-19T02:20:48.576Z,0
2016-11-19T02:21:57.264Z,0
2016-11-19T02:23:06.251Z,0
2016-11-19T02:24:14.946Z,0
2016-11-19T02:25:23.639Z,0
2016-11-19T02:26:32.328Z,0
2016-11-19T02:27:41.020Z,0
2016-11-19T02:28:50.022Z,0
2016-11-19T02:29:58.709Z,0
2016-11-19T02:31:07.402Z,0
2016-11-19T02:32:16.090Z,0
2016-11-19T02:33:24.776Z,0
2016-11-19T02:34:33.463Z,0
2016-11-19T02:35:42.155Z,0
2016-11-19T02:36:50.847Z,0
2016-11-19T02:37:59.536Z,0
2016-11-19T02:39:08.226Z,0
2016-11-19T02:40:16.916Z,0
2016-11-19T02:41:25.603Z,0
2016-11-19T02:42:34.291Z,0
2016-11-19T02:43:42.984Z,0
2016-11-19T02:44:51.683Z,0
2016-11-19T02:46:00.371Z,0
2016-11-19T02:47:09.078Z,0
2016-11-19T02:48:17.767Z,0
2016-11-19T02:49:26.459Z,0
2016-11-19T02:50:35.148Z,0
2016-11-19T02:51:43.838Z,0
2016-11-19T02:52:52.526Z,0
2016-11-19T02:54:01.215Z,0
2016-11-19T02:55:09.932Z,0
2016-11-19T02:56:18.618Z,0
2016-11-19T02:57:27.314Z,0
2016-11-19T02:58:36.005Z,0
2016-11-19T02:59:44.723Z,0
2016-11-19T03:00:53.411Z,0
2016-11-19T03:02:02.130Z,0
2016-11-19T03:03:10.862Z,0
2016-11-19T03:04:19.549Z,0
2016-11-19T03:05:28.234Z,0
2016-11-19T03:06:36.958Z,0
2016-11-19T03:07:45.650Z,0
2016-11-19T03:08:54.336Z,0
2016-11-19T03:10:03.060Z,0
2016-11-19T03:11:11.751Z,0
2016-11-19T03:12:20.437Z,0
2016-11-19T03:13:29.127Z,0
2016-11-19T03:14:37.813Z,0
2016-11-19T03:15:46.494Z,0
2016-11-19T03:16:55.178Z,0
2016-11-19T03:18:03.878Z,0
2016-11-19T03:19:12.564Z,0
2016-11-19T03:20:21.251Z,0
2016-11-19T03:21:29.941Z,0
2016-11-19T03:22:38.623Z,0
2016-11-19T03:23:47.311Z,0
2016-11-19T03:24:55.993Z,0
2016-11-19T03:26:04.685Z,0
2016-11-19T03:27:13.373Z,0
2016-11-19T03:28:22.065Z,0
2016-11-19T03:29:30.756Z,0
2016-11-19T03:30:39.442Z,0
2016-11-19T03:31:48.137Z,0
2016-11-19T03:32:56.822Z,0
2016-11-19T03:34:05.514Z,0
2016-11-19T03:35:14.207Z,0
2016-11-19T03:36:22.897Z,0
2016-11-19T03:37:31.901Z,0
2016-11-19T03:38:40.586Z,0
2016-11-19T03:39:49.274Z,0
2016-11-19T03:40:58.274Z,0
2016-11-19T03:42:06.963Z,0
2016-11-19T03:43:15.659Z,0
2016-11-19T03:44:24.384Z,0
2016-11-19T03:45:33.080Z,0
2016-11-19T03:46:41.773Z,0
2016-11-19T03:47:50.457Z,0
2016-11-19T03:48:59.144Z,0
2016-11-19T03:50:07.867Z,0
2016-11-19T03:51:16.556Z,0
2016-11-19T03:52:25.241Z,0
2016-11-19T03:53:33.931Z,0
2016-11-19T03:54:42.619Z,0
2016-11-19T03:55:51.638Z,0
2016-11-19T03:57:00.325Z,0
2016-11-19T03:58:09.015Z,0
2016-11-19T03:59:17.699Z,0
2016-11-19T04:00:26.384Z,0
2016-11-19T04:01:35.074Z,0
2016-11-19T04:02:43.758Z,0
2016-11-19T04:03:52.447Z,0
2016-11-19T04:05:01.187Z,0
2016-11-19T04:06:09.884Z,0
2016-11-19T04:07:18.575Z,0
2016-11-19T04:08:27.259Z,0
2016-11-19T04:09:35.945Z,0
2016-11-19T04:10:44.638Z,0
2016-11-19T04:11:53.332Z,0
2016-11-19T04:13:02.023Z,0
2016-11-19T04:14:10.715Z,0
2016-11-19T04:15:19.402Z,0
2016-11-19T04:16:28.090Z,0
2016-11-19T04:17:36.804Z,0
2016-11-19T04:18:45.494Z,0
2016-11-19T04:19:54.182Z,0
2016-11-19T04:21:02.872Z,0
2016-11-19T04:22:11.563Z,0
2016-11-19T04:23:20.279Z,0
2016-11-19T04:24:28.970Z,0
2016-11-19T04:25:37.668Z,0
2016-11-19T04:26:46.354Z,0
2016-11-19T04:27:55.039Z,0
2016-11-19T04:29:03.725Z,0
2016-11-19T04:30:12.415Z,0
2016-11-19T04:31:21.108Z,0
2016-11-19T04:32:29.801Z,0
2016-11-19T04:33:38.487Z,0
2016-11-19T04:34:47.175Z,0
2016-11-19T04:35:55.865Z,0
2016-11-19T04:37:04.550Z,0
2016-11-19T04:38:13.240Z,0
2016-11-19T04:39:21.931Z,0
2016-11-19T04:40:30.617Z,0
2016-11-19T04:41:39.305Z,0
2016-11-19T04:42:47.996Z,0
2016-11-19T04:43:56.688Z,0
2016-11-19T04:45:05.374Z,0
2016-11-19T04:46:14.065Z,0
2016-11-19T04:47:22.752Z,0
2016-11-19T04:48:31.476Z,0
2016-11-19T04:49:40.162Z,0
2016-11-19T04:50:48.853Z,0
2016-11-19T04:51:57.542Z,0
2016-11-19T04:53:06.232Z,0
2016-11-19T04:54:14.918Z,0
2016-11-19T04:55:23.605Z,0
2016-11-19T04:56:32.295Z,0
2016-11-19T04:57:41.005Z,0
2016-11-19T04:58:49.697Z,0
2016-11-19T04:59:58.385Z,0
2016-11-19T05:01:07.079Z,0
2016-11-19T05:02:15.769Z,0
2016-11-19T05:03:24.455Z,0
2016-11-19T05:04:33.142Z,0
2016-11-19T05:05:41.829Z,0
2016-11-19T05:06:50.511Z,0
2016-11-19T05:07:59.207Z,0
2016-11-19T05:09:07.901Z,0
2016-11-19T05:10:16.585Z,0
2016-11-19T05:11:25.300Z,0
2016-11-19T05:12:34.021Z,0
2016-11-19T05:13:42.714Z,0
2016-11-19T05:14:51.408Z,0
2016-11-19T05:16:00.098Z,0
2016-11-19T05:17:08.790Z,0
2016-11-19T05:18:17.479Z,0
2016-11-19T05:19:26.170Z,0
2016-11-19T05:20:34.861Z,0
2016-11-19T05:21:43.549Z,0
2016-11-19T05:22:52.280Z,0
2016-11-19T05:24:00.971Z,0
2016-11-19T05:25:09.687Z,0
2016-11-19T05:26:18.385Z,0
2016-11-19T05:27:27.075Z,0
2016-11-19T05:28:35.765Z,0
2016-11-19T05:29:44.455Z,0
2016-11-19T05:30:53.144Z,0
2016-11-19T05:32:01.838Z,0
2016-11-19T05:33:10.538Z,0
2016-11-19T05:34:19.226Z,0
2016-11-19T05:35:27.943Z,0
2016-11-19T05:36:36.629Z,0
2016-11-19T05:37:45.363Z,0
2016-11-19T05:38:54.053Z,0
2016-11-19T05:40:02.742Z,0
2016-11-19T05:41:11.433Z,0
2016-11-19T05:42:20.125Z,0
2016-11-19T05:43:28.813Z,0
2016-11-19T05:44:37.496Z,0
2016-11-19T05:45:46.182Z,0
2016-11-19T05:46:54.873Z,0
2016-11-19T05:48:03.559Z,0
2016-11-19T05:49:12.244Z,0
2016-11-19T05:50:20.934Z,0
2016-11-19T05:51:29.625Z,0
2016-11-19T05:52:38.313Z,0
2016-11-19T05:53:46.999Z,0
2016-11-19T05:54:55.689Z,0
2016-11-19T05:56:04.375Z,0
2016-11-19T05:57:13.066Z,0
2016-11-19T05:58:21.761Z,0
2016-11-19T05:59:30.449Z,0
2016-11-19T06:00:39.134Z,0
2016-11-19T06:01:47.828Z,0
2016-11-19T06:02:56.832Z,0
2016-11-19T06:04:05.524Z,0
2016-11-19T06:05:14.210Z,0
2016-11-19T06:06:22.902Z,0
2016-11-19T06:07:31.629Z,0
2016-11-19T06:08:40.319Z,0
2016-11-19T06:09:49.003Z,0
2016-11-19T06:10:57.687Z,0
2016-11-19T06:12:06.378Z,0
2016-11-19T06:13:15.096Z,0
2016-11-19T06:14:23.789Z,0
2016-11-19T06:15:32.473Z,0
2016-11-19T06:16:41.167Z,0
2016-11-19T06:17:49.851Z,0
2016-11-19T06:18:58.543Z,0
2016-11-19T06:20:07.237Z,0
2016-11-19T06:21:16.238Z,0
2016-11-19T06:22:24.930Z,0
2016-11-19T06:23:33.649Z,0
2016-11-19T06:24:42.654Z,0
2016-11-19T06:25:51.342Z,0
2016-11-19T06:27:00.025Z,0
2016-11-19T06:28:08.713Z,0
2016-11-19T06:29:17.397Z,0
2016-11-19T06:30:26.125Z,0
2016-11-19T06:31:34.816Z,0
2016-11-19T06:32:43.513Z,0
2016-11-19T06:33:52.198Z,0
2016-11-19T06:35:00.886Z,0
2016-11-19T06:36:09.596Z,0
2016-11-19T06:37:18.322Z,0
2016-11-19T06:38:27.049Z,0
2016-11-19T06:39:35.735Z,0
2016-11-19T06:40:44.423Z,4
2016-11-19T06:41:53.108Z,4
2016-11-19T06:43:01.802Z,0
2016-11-19T06:44:10.493Z,0
2016-11-19T06:45:19.178Z,4
2016-11-19T06:46:27.869Z,4
2016-11-19T06:47:36.563Z,0
2016-11-19T06:48:45.258Z,4
2016-11-19T06:49:53.979Z,4
2016-11-19T06:51:02.988Z,4
2016-11-19T06:52:11.677Z,8
2016-11-19T06:53:20.370Z,8
2016-11-19T06:54:29.057Z,8
2016-11-19T06:55:37.747Z,8
2016-11-19T06:56:46.438Z,12
2016-11-19T06:57:55.122Z,12
2016-11-19T06:59:03.811Z,16
2016-11-19T07:00:12.503Z,20
2016-11-19T07:01:21.189Z,20
2016-11-19T07:02:29.877Z,24
2016-11-19T07:03:38.573Z,28
2016-11-19T07:04:47.297Z,28
2016-11-19T07:05:55.985Z,32
2016-11-19T07:07:04.677Z,40
2016-11-19T07:08:13.362Z,44
2016-11-19T07:09:22.050Z,44
2016-11-19T07:10:31.063Z,52
2016-11-19T07:11:39.749Z,60
2016-11-19T07:12:48.437Z,64
2016-11-19T07:13:57.127Z,68
2016-11-19T07:15:05.816Z,76
2016-11-19T07:16:14.503Z,84
2016-11-19T07:17:23.189Z,92
2016-11-19T07:18:31.874Z,100
2016-11-19T07:19:40.567Z,108
2016-11-19T07:20:49.255Z,120
2016-11-19T07:21:57.940Z,132
2016-11-19T07:23:06.647Z,144
2016-11-19T07:24:15.653Z,156
2016-11-19T07:25:24.340Z,168
2016-11-19T07:26:33.039Z,184
2016-11-19T07:27:41.763Z,200
2016-11-19T07:28:50.456Z,216
2016-11-19T07:29:59.151Z,236
2016-11-19T07:31:08.151Z,256
2016-11-19T07:32:16.841Z,280
2016-11-19T07:33:25.528Z,300
2016-11-19T07:34:34.214Z,324
2016-11-19T07:35:42.929Z,352
2016-11-19T07:36:51.620Z,372
2016-11-19T07:38:00.308Z,388
2016-11-19T07:39:08.995Z,408
2016-11-19T07:40:17.685Z,428
2016-11-19T07:41:26.371Z,448
2016-11-19T07:42:35.064Z,472
2016-11-19T07:43:43.752Z,500
2016-11-19T07:44:52.441Z,536
2016-11-19T07:46:01.137Z,580
2016-11-19T07:47:09.864Z,640
2016-11-19T07:48:18.557Z,716
2016-11-19T07:49:27.241Z,792
2016-11-19T07:50:35.933Z,880
2016-11-19T07:51:44.633Z,964
2016-11-19T07:52:53.321Z,1056
2016-11-19T07:54:02.005Z,1144
2016-11-19T07:55:10.706Z,1244
2016-11-19T07:56:19.392Z,1336
2016-11-19T07:57:28.082Z,1416
2016-11-19T07:58:36.771Z,1492
2016-11-19T07:59:45.458Z,1580
2016-11-19T08:00:54.144Z,1652
2016-11-19T08:02:02.834Z,1728
2016-11-19T08:03:11.527Z,1788
2016-11-19T08:04:20.213Z,1848
2016-11-19T08:05:28.907Z,1944
2016-11-19T08:06:37.596Z,2000
2016-11-19T08:07:46.283Z,2040
2016-11-19T08:08:55.289Z,2088
2016-11-19T08:10:03.976Z,2136
2016-11-19T08:11:12.663Z,2188
2016-11-19T08:12:21.357Z,2256
2016-11-19T08:13:30.045Z,2324
2016-11-19T08:14:38.738Z,2372
2016-11-19T08:15:47.429Z,2380
2016-11-19T08:16:56.145Z,2372
2016-11-19T08:18:04.830Z,2364
2016-11-19T08:19:13.518Z,2400
2016-11-19T08:20:22.207Z,2436
2016-11-19T08:21:30.897Z,2468
2016-11-19T08:22:39.580Z,2464
2016-11-19T08:23:48.296Z,2420
2016-11-19T08:24:56.983Z,2404
2016-11-19T08:26:05.676Z,2372
2016-11-19T08:27:14.366Z,2296
2016-11-19T08:28:23.069Z,2232
2016-11-19T08:29:31.757Z,2196
2016-11-19T08:30:40.454Z,2204
2016-11-19T08:31:49.143Z,2220
2016-11-19T08:32:57.836Z,2220
2016-11-19T08:34:06.527Z,2220
2016-11-19T08:35:15.219Z,2232
2016-11-19T08:36:23.911Z,2244
2016-11-19T08:37:32.602Z,2268
2016-11-19T08:38:41.287Z,2288
2016-11-19T08:39:49.980Z,2312
2016-11-19T08:40:58.671Z,2336
2016-11-19T08:42:07.363Z,2368
2016-11-19T08:43:16.056Z,2408
2016-11-19T08:44:24.743Z,2460
2016-11-19T08:45:33.429Z,2512
2016-11-19T08:46:42.461Z,2576
2016-11-19T08:47:51.151Z,2640
2016-11-19T08:49:00.150Z,2716
2016-11-19T08:50:08.842Z,2780
2016-11-19T08:51:17.528Z,2848
2016-11-19T08:52:26.222Z,2908
2016-11-19T08:53:34.909Z,2956
2016-11-19T08:54:43.912Z,3000
2016-11-19T08:55:52.597Z,3064
2016-11-19T08:57:01.287Z,3112
2016-11-19T08:58:10.009Z,3144
2016-11-19T08:59:18.737Z,3180
2016-11-19T09:00:27.429Z,3216
2016-11-19T09:01:36.118Z,3240
2016-11-19T09:02:44.810Z,3312
2016-11-19T09:03:53.496Z,3380
2016-11-19T09:05:02.185Z,3436
2016-11-19T09:06:10.875Z,3396
2016-11-19T09:07:19.588Z,3308
2016-11-19T09:08:28.278Z,3256
2016-11-19T09:09:36.974Z,3268
2016-11-19T09:10:45.661Z,3292
2016-11-19T09:11:54.350Z,3364
2016-11-19T09:13:03.038Z,3440
2016-11-19T09:14:11.729Z,3476
2016-11-19T09:15:20.420Z,3528
2016-11-19T09:16:29.142Z,3532
2016-11-19T09:17:37.835Z,3516
2016-11-19T09:18:46.525Z,3552
2016-11-19T09:19:55.241Z,3592
2016-11-19T09:21:04.250Z,3640
2016-11-19T09:22:12.938Z,3720
2016-11-19T09:23:21.654Z,3808
2016-11-19T09:24:30.659Z,3904
2016-11-19T09:25:39.344Z,3976
2016-11-19T09:26:48.058Z,4076
2016-11-19T09:27:56.749Z,4132
2016-11-19T09:29:05.446Z,4156
2016-11-19T09:30:14.138Z,4228
2016-11-19T09:31:22.824Z,4300
2016-11-19T09:32:31.515Z,4464
2016-11-19T09:33:40.209Z,4648
2016-11-19T09:34:48.891Z,4868
2016-11-19T09:35:57.889Z,4980
2016-11-19T09:37:06.599Z,5088
2016-11-19T09:38:15.285Z,5248
2016-11-19T09:39:23.975Z,5464
2016-11-19T09:40:32.666Z,5596
2016-11-19T09:41:41.357Z,5688
2016-11-19T09:42:50.051Z,5704
2016-11-19T09:43:58.736Z,5684
2016-11-19T09:45:07.431Z,5608
2016-11-19T09:46:16.122Z,5620
2016-11-19T09:47:24.813Z,5636
2016-11-19T09:48:33.502Z,5668
2016-11-19T09:49:42.192Z,5740
2016-11-19T09:50:50.881Z,5984
2016-11-19T09:51:59.567Z,6380
2016-11-19T09:53:08.256Z,6592
2016-11-19T09:54:16.944Z,6532
2016-11-19T09:55:25.629Z,6300
2016-11-19T09:56:34.329Z,6000
2016-11-19T09:57:43.021Z,5736
2016-11-19T09:58:51.716Z,5492
2016-11-19T10:00:00.411Z,5248
2016-11-19T10:01:11.230Z,5016
2016-11-19T10:02:19.923Z,4856
2016-11-19T10:03:28.614Z,4736
2016-11-19T10:04:37.306Z,4612
2016-11-19T10:05:45.988Z,4504
2016-11-19T10:06:54.774Z,4476
2016-11-19T10:08:03.463Z,4468
2016-11-19T10:09:12.154Z,4452
2016-11-19T10:10:20.840Z,4428
2016-11-19T10:11:29.532Z,4428
2016-11-19T10:12:38.273Z,4468
2016-11-19T10:13:46.961Z,4528
2016-11-19T10:14:55.652Z,4616
2016-11-19T10:16:04.371Z,4668
2016-11-19T10:17:13.063Z,4748
2016-11-19T10:18:22.056Z,4848
2016-11-19T10:19:30.746Z,4932
2016-11-19T10:20:39.439Z,5000
2016-11-19T10:21:48.137Z,4976
2016-11-19T10:22:56.822Z,4876
2016-11-19T10:24:05.573Z,4804
2016-11-19T10:25:14.577Z,4776
2016-11-19T10:26:23.268Z,4772
2016-11-19T10:27:31.955Z,4804
2016-11-19T10:28:40.649Z,4772
2016-11-19T10:29:49.708Z,4784
2016-11-19T10:30:58.397Z,4852
2016-11-19T10:32:07.082Z,4908
2016-11-19T10:33:15.775Z,4952
2016-11-19T10:34:24.467Z,5000
2016-11-19T10:35:33.205Z,5092
2016-11-19T10:36:41.893Z,5196
2016-11-19T10:37:50.585Z,5380
2016-11-19T10:38:59.286Z,6104
2016-11-19T10:40:07.985Z,6720
2016-11-19T10:41:16.775Z,6688
2016-11-19T10:42:25.461Z,7464
2016-11-19T10:43:34.145Z,7452
2016-11-19T10:44:42.839Z,6792
2016-11-19T10:45:51.527Z,6632
2016-11-19T10:47:00.266Z,6440
2016-11-19T10:48:08.957Z,6264
2016-11-19T10:49:17.650Z,6232
2016-11-19T10:50:26.343Z,6204
2016-11-19T10:51:35.033Z,6284
2016-11-19T10:52:43.796Z,6384
2016-11-19T10:53:52.483Z,6780
2016-11-19T10:55:01.168Z,6956
2016-11-19T10:56:09.860Z,7680
2016-11-19T10:57:18.547Z,7828
2016-11-19T10:58:27.286Z,7900
2016-11-19T10:59:35.971Z,7496
2016-11-19T11:00:44.658Z,7328
2016-11-19T11:01:53.354Z,8104
2016-11-19T11:03:02.043Z,8584
2016-11-19T11:04:10.778Z,8380
2016-11-19T11:05:19.464Z,7480
2016-11-19T11:06:28.185Z,6752
2016-11-19T11:07:36.876Z,7000
2016-11-19T11:08:45.564Z,7224
2016-11-19T11:09:54.302Z,6496
2016-11-19T11:11:02.991Z,8112
2016-11-19T11:12:11.686Z,8652
2016-11-19T11:13:20.380Z,9200
2016-11-19T11:14:29.065Z,11088
2016-11-19T11:15:37.805Z,11672
2016-11-19T11:16:46.498Z,11928
2016-11-19T11:17:55.188Z,11700
2016-11-19T11:19:03.905Z,13096
2016-11-19T11:20:12.599Z,12432
2016-11-19T11:21:21.336Z,12488
2016-11-19T11:22:30.025Z,11104
2016-11-19T11:23:38.717Z,7860
2016-11-19T11:24:47.407Z,7348
2016-11-19T11:25:56.100Z,7220
2016-11-19T11:27:04.888Z,6912
2016-11-19T11:28:13.578Z,6944
2016-11-19T11:29:22.270Z,7488
2016-11-19T11:30:30.962Z,7080
2016-11-19T11:31:39.653Z,7028
2016-11-19T11:32:48.393Z,7648
2016-11-19T11:33:57.082Z,9008
2016-11-19T11:35:05.774Z,11316
2016-11-19T11:36:14.467Z,13600
2016-11-19T11:37:23.164Z,15712
2016-11-19T11:38:31.907Z,16928
2016-11-19T11:39:40.605Z,15840
2016-11-19T11:40:49.295Z,16704
2016-11-19T11:41:57.984Z,14880
2016-11-19T11:43:06.678Z,13180
2016-11-19T11:44:15.421Z,11936
2016-11-19T11:45:24.118Z,11360
2016-11-19T11:46:32.808Z,10632
2016-11-19T11:47:41.507Z,9076
2016-11-19T11:48:50.200Z,8796
2016-11-19T11:49:58.943Z,7924
2016-11-19T11:51:07.643Z,7240
2016-11-19T11:52:16.336Z,7084
2016-11-19T11:53:25.075Z,7952
2016-11-19T11:54:33.763Z,9324
2016-11-19T11:55:42.509Z,8804
2016-11-19T11:56:51.199Z,9476
2016-11-19T11:57:59.898Z,9172
2016-11-19T11:59:08.591Z,8692
2016-11-19T12:00:17.283Z,8540
2016-11-19T12:01:26.028Z,8892
2016-11-19T12:02:34.724Z,9008
2016-11-19T12:03:43.740Z,10136
2016-11-19T12:04:52.443Z,11072
2016-11-19T12:06:01.165Z,10948
2016-11-19T12:07:09.911Z,9836
2016-11-19T12:08:18.611Z,9004
2016-11-19T12:09:27.311Z,10532
2016-11-19T12:10:36.006Z,10544
2016-11-19T12:11:44.702Z,10628
2016-11-19T12:12:53.448Z,10972
2016-11-19T12:14:02.180Z,12708
2016-11-19T12:15:10.877Z,12676
2016-11-19T12:16:19.578Z,12704
2016-11-19T12:17:28.273Z,11760
2016-11-19T12:18:37.021Z,11092
2016-11-19T12:19:45.723Z,11440
2016-11-19T12:20:54.414Z,12280
2016-11-19T12:22:03.109Z,12376
2016-11-19T12:23:11.806Z,12288
2016-11-19T12:24:20.556Z,12768
2016-11-19T12:25:29.255Z,12668
2016-11-19T12:26:37.948Z,12548
2016-11-19T12:27:46.956Z,12760
2016-11-19T12:28:55.657Z,12724
2016-11-19T12:30:04.406Z,12480
2016-11-19T12:31:13.100Z,12272
2016-11-19T12:32:21.799Z,12176
2016-11-19T12:33:30.507Z,12064
2016-11-19T12:34:39.526Z,11900
2016-11-19T12:35:48.275Z,11808
2016-11-19T12:36:56.978Z,11700
2016-11-19T12:38:05.676Z,11752
2016-11-19T12:39:14.375Z,11708
2016-11-19T12:40:23.077Z,10168
2016-11-19T12:41:31.824Z,8788
2016-11-19T12:42:40.519Z,7540
2016-11-19T12:43:49.533Z,5812
2016-11-19T12:44:58.231Z,4212
2016-11-19T12:46:06.929Z,3716
2016-11-19T12:47:15.679Z,3616
2016-11-19T12:48:24.375Z,3540
2016-11-19T12:49:33.073Z,3488
2016-11-19T12:50:41.799Z,3456
2016-11-19T12:51:50.495Z,3476
2016-11-19T12:52:59.244Z,3608
2016-11-19T12:54:07.938Z,4988
2016-11-19T12:55:16.634Z,11432
2016-11-19T12:56:25.329Z,11948
2016-11-19T12:57:34.023Z,11420
2016-11-19T12:58:42.764Z,11128
2016-11-19T12:59:51.459Z,9436
2016-11-19T13:01:00.166Z,10692
2016-11-19T13:02:09.206Z,8368
2016-11-19T13:03:17.901Z,8932
2016-11-19T13:04:26.659Z,11044
2016-11-19T13:05:35.352Z,10948
2016-11-19T13:06:44.047Z,10844
2016-11-19T13:07:52.769Z,9712
2016-11-19T13:09:01.472Z,7380
2016-11-19T13:10:10.247Z,5960
2016-11-19T13:11:18.968Z,5524
2016-11-19T13:12:27.675Z,5556
2016-11-19T13:13:36.432Z,5796
2016-11-19T13:14:45.130Z,5804
2016-11-19T13:15:53.875Z,4824
2016-11-19T13:17:02.567Z,3520
2016-11-19T13:18:11.260Z,3060
2016-11-19T13:19:19.952Z,3060
2016-11-19T13:20:28.652Z,4028
2016-11-19T13:21:37.396Z,4436
2016-11-19T13:22:46.134Z,4300
2016-11-19T13:23:54.838Z,4048
2016-11-19T13:25:03.530Z,3832
2016-11-19T13:26:12.536Z,3664
2016-11-19T13:27:21.326Z,3368
2016-11-19T13:28:30.047Z,3080
2016-11-19T13:29:38.800Z,2840
2016-11-19T13:30:47.507Z,2704
2016-11-19T13:31:56.198Z,2596
2016-11-19T13:33:04.941Z,2508
2016-11-19T13:34:13.634Z,2460
2016-11-19T13:35:22.323Z,2524
2016-11-19T13:36:31.013Z,2584
2016-11-19T13:37:39.705Z,2704
2016-11-19T13:38:48.447Z,2800
2016-11-19T13:39:57.144Z,2812
2016-11-19T13:41:05.841Z,2716
2016-11-19T13:42:14.530Z,2412
2016-11-19T13:43:23.227Z,2228
2016-11-19T13:44:32.286Z,2096
2016-11-19T13:45:41.300Z,1944
2016-11-19T13:46:49.995Z,1808
2016-11-19T13:47:59.003Z,1672
2016-11-19T13:49:07.715Z,1556
2016-11-19T13:50:16.459Z,1488
2016-11-19T13:51:25.154Z,1448
2016-11-19T13:52:33.845Z,1428
2016-11-19T13:53:42.536Z,1392
2016-11-19T13:54:51.232Z,1352
2016-11-19T13:56:00.606Z,1320
2016-11-19T13:57:09.297Z,1280
2016-11-19T13:58:17.987Z,1252
2016-11-19T13:59:26.677Z,1232
2016-11-19T14:00:35.370Z,1212
2016-11-19T14:01:44.111Z,1200
2016-11-19T14:02:52.801Z,1184
2016-11-19T14:04:01.496Z,1144
2016-11-19T14:05:10.226Z,1096
2016-11-19T14:06:19.247Z,1040
2016-11-19T14:07:27.982Z,984
2016-11-19T14:08:36.671Z,932
2016-11-19T14:09:45.360Z,884
2016-11-19T14:10:54.044Z,844
2016-11-19T14:12:02.736Z,808
2016-11-19T14:13:11.474Z,772
2016-11-19T14:14:20.170Z,740
2016-11-19T14:15:28.857Z,708
2016-11-19T14:16:37.545Z,680
2016-11-19T14:17:46.237Z,656
2016-11-19T14:18:54.978Z,628
2016-11-19T14:20:03.675Z,604
2016-11-19T14:21:12.364Z,576
2016-11-19T14:22:21.053Z,548
2016-11-19T14:23:29.747Z,528
2016-11-19T14:24:38.484Z,500
2016-11-19T14:25:47.184Z,472
2016-11-19T14:26:55.875Z,444
2016-11-19T14:28:04.568Z,416
2016-11-19T14:29:13.258Z,388
2016-11-19T14:30:21.993Z,364
2016-11-19T14:31:30.684Z,340
2016-11-19T14:32:39.372Z,320
2016-11-19T14:33:48.063Z,300
2016-11-19T14:34:56.766Z,280
2016-11-19T14:36:05.503Z,260
2016-11-19T14:37:14.215Z,244
2016-11-19T14:38:22.900Z,228
2016-11-19T14:39:32.266Z,212
2016-11-19T14:40:40.946Z,196
2016-11-19T14:41:49.689Z,184
2016-11-19T14:42:58.385Z,168
2016-11-19T14:44:07.085Z,156
2016-11-19T14:45:16.100Z,140
2016-11-19T14:46:24.789Z,132
2016-11-19T14:47:33.525Z,120
2016-11-19T14:48:42.212Z,108
2016-11-19T14:49:50.897Z,100
2016-11-19T14:50:59.590Z,88
2016-11-19T14:52:08.288Z,80
2016-11-19T14:53:17.037Z,72
2016-11-19T14:54:25.728Z,64
2016-11-19T14:55:34.435Z,60
2016-11-19T14:56:43.123Z,52
2016-11-19T14:57:51.813Z,44
2016-11-19T14:59:00.552Z,44
2016-11-19T15:00:09.238Z,36
2016-11-19T15:01:17.948Z,32
2016-11-19T15:02:26.645Z,28
2016-11-19T15:03:35.333Z,28
2016-11-19T15:04:44.121Z,20
2016-11-19T15:05:52.811Z,20
2016-11-19T15:07:01.526Z,20
2016-11-19T15:08:10.217Z,16
2016-11-19T15:09:18.933Z,12
2016-11-19T15:10:27.670Z,12
2016-11-19T15:11:36.371Z,8
2016-11-19T15:12:45.054Z,8
2016-11-19T15:13:53.741Z,8
2016-11-19T15:15:02.433Z,4
2016-11-19T15:16:11.172Z,8
2016-11-19T15:17:19.865Z,4
2016-11-19T15:18:28.550Z,8
2016-11-19T15:19:37.248Z,4
2016-11-19T15:20:45.937Z,4
2016-11-19T15:21:54.683Z,0
2016-11-19T15:23:03.377Z,4
2016-11-19T15:24:12.063Z,4
2016-11-19T15:25:20.751Z,4
2016-11-19T15:26:29.433Z,4
2016-11-19T15:27:38.174Z,0
2016-11-19T15:28:47.173Z,0
2016-11-19T15:29:55.860Z,0
2016-11-19T15:31:04.551Z,0
2016-11-19T15:32:13.245Z,0
2016-11-19T15:33:21.985Z,0
2016-11-19T15:34:30.678Z,0
2016-11-19T15:35:39.364Z,0
2016-11-19T15:36:48.047Z,0
2016-11-19T15:37:56.733Z,0
2016-11-19T15:39:05.475Z,0
2016-11-19T15:40:14.164Z,0
2016-11-19T15:41:22.848Z,0
2016-11-19T15:42:31.532Z,0
2016-11-19T15:43:40.224Z,0
2016-11-19T15:44:48.964Z,0
2016-11-19T15:45:57.976Z,0
2016-11-19T15:47:06.665Z,0
2016-11-19T15:48:15.347Z,0
2016-11-19T15:49:24.037Z,0
2016-11-19T15:50:32.777Z,0
2016-11-19T15:51:41.464Z,0
2016-11-19T15:52:50.153Z,0
2016-11-19T15:53:58.845Z,0
2016-11-19T15:55:07.533Z,0
2016-11-19T15:56:16.282Z,0
2016-11-19T15:57:24.965Z,0
2016-11-19T15:58:33.655Z,0
2016-11-19T15:59:42.339Z,0
2016-11-19T16:00:51.023Z,0
2016-11-19T16:01:59.764Z,0
2016-11-19T16:03:08.455Z,0
2016-11-19T16:04:17.144Z,0
2016-11-19T16:05:25.834Z,0